sensor_id;sensor_type;location;lat;lon;timestamp;temperature;humidity
27226;DHT22;14732;51.074;3.788;2022-11-12T00:00:33;8.60;99.90
27226;DHT22;14732;51.074;3.788;2022-11-12T00:02:59;8.50;99.90
27226;DHT22;14732;51.074;3.788;2022-11-12T00:05:25;8.40;99.90
27226;DHT22;14732;51.074;3.788;2022-11-12T00:07:50;8.40;99.90
27226;DHT22;14732;51.074;3.788;2022-11-12T00:10:16;8.40;99.90
27226;DHT22;14732;51.074;3.788;2022-11-12T00:12:43;8.50;99.90
27226;DHT22;14732;51.074;3.788;2022-11-12T00:15:09;8.40;99.90
27226;DHT22;14732;51.074;3.788;2022-11-12T00:17:35;8.40;99.90
27226;DHT22;14732;51.074;3.788;2022-11-12T00:20:01;8.40;99.90
27226;DHT22;14732;51.074;3.788;2022-11-12T00:22:27;8.30;99.90
27226;DHT22;14732;51.074;3.788;2022-11-12T00:24:52;8.20;99.90
27226;DHT22;14732;51.074;3.788;2022-11-12T00:27:18;8.10;99.90
27226;DHT22;14732;51.074;3.788;2022-11-12T00:29:43;8.00;99.90
27226;DHT22;14732;51.074;3.788;2022-11-12T00:32:10;8.00;99.90
27226;DHT22;14732;51.074;3.788;2022-11-12T00:34:36;8.10;99.90
27226;DHT22;14732;51.074;3.788;2022-11-12T00:37:01;8.10;99.90
27226;DHT22;14732;51.074;3.788;2022-11-12T00:39:27;8.20;99.90
27226;DHT22;14732;51.074;3.788;2022-11-12T00:41:53;8.30;99.90
27226;DHT22;14732;51.074;3.788;2022-11-12T00:44:19;8.20;99.90
27226;DHT22;14732;51.074;3.788;2022-11-12T00:46:45;8.20;99.90
27226;DHT22;14732;51.074;3.788;2022-11-12T00:49:11;8.20;99.90
27226;DHT22;14732;51.074;3.788;2022-11-12T00:51:37;8.10;99.90
27226;DHT22;14732;51.074;3.788;2022-11-12T00:54:04;8.10;99.90
27226;DHT22;14732;51.074;3.788;2022-11-12T00:56:29;8.00;99.90
27226;DHT22;14732;51.074;3.788;2022-11-12T00:58:56;8.00;99.90
27226;DHT22;14732;51.074;3.788;2022-11-12T01:01:22;7.90;99.90
27226;DHT22;14732;51.074;3.788;2022-11-12T01:03:48;8.00;99.90
27226;DHT22;14732;51.074;3.788;2022-11-12T01:06:19;8.00;99.90
27226;DHT22;14732;51.074;3.788;2022-11-12T01:08:46;8.00;99.90
27226;DHT22;14732;51.074;3.788;2022-11-12T01:13:44;7.90;99.90
27226;DHT22;14732;51.074;3.788;2022-11-12T01:16:16;7.90;99.90
27226;DHT22;14732;51.074;3.788;2022-11-12T01:18:42;7.90;99.90
27226;DHT22;14732;51.074;3.788;2022-11-12T01:21:08;7.90;99.90
27226;DHT22;14732;51.074;3.788;2022-11-12T01:23:35;7.90;99.90
27226;DHT22;14732;51.074;3.788;2022-11-12T01:26:13;7.90;99.90
27226;DHT22;14732;51.074;3.788;2022-11-12T01:28:40;7.90;99.90
27226;DHT22;14732;51.074;3.788;2022-11-12T01:31:29;8.00;99.90
27226;DHT22;14732;51.074;3.788;2022-11-12T01:33:56;8.00;99.90
27226;DHT22;14732;51.074;3.788;2022-11-12T01:36:23;7.90;99.90
27226;DHT22;14732;51.074;3.788;2022-11-12T01:38:50;7.80;99.90
27226;DHT22;14732;51.074;3.788;2022-11-12T01:41:28;7.80;99.90
27226;DHT22;14732;51.074;3.788;2022-11-12T01:44:19;7.70;99.90
27226;DHT22;14732;51.074;3.788;2022-11-12T01:47:04;7.60;99.90
27226;DHT22;14732;51.074;3.788;2022-11-12T01:49:46;7.60;99.90
27226;DHT22;14732;51.074;3.788;2022-11-12T01:52:33;7.50;99.90
27226;DHT22;14732;51.074;3.788;2022-11-12T01:55:06;7.50;99.90
27226;DHT22;14732;51.074;3.788;2022-11-12T01:57:37;7.50;99.90
27226;DHT22;14732;51.074;3.788;2022-11-12T02:00:08;7.50;99.90
27226;DHT22;14732;51.074;3.788;2022-11-12T02:02:36;7.40;99.90
27226;DHT22;14732;51.074;3.788;2022-11-12T02:05:05;7.40;99.90
27226;DHT22;14732;51.074;3.788;2022-11-12T02:07:32;7.40;99.90
27226;DHT22;14732;51.074;3.788;2022-11-12T02:10:00;7.50;99.90
27226;DHT22;14732;51.074;3.788;2022-11-12T02:12:27;7.60;99.90
27226;DHT22;14732;51.074;3.788;2022-11-12T02:15:11;7.50;99.90
27226;DHT22;14732;51.074;3.788;2022-11-12T02:17:37;7.40;99.90
27226;DHT22;14732;51.074;3.788;2022-11-12T02:20:03;7.30;99.90
27226;DHT22;14732;51.074;3.788;2022-11-12T02:22:29;7.30;99.90
27226;DHT22;14732;51.074;3.788;2022-11-12T02:24:55;7.20;99.90
27226;DHT22;14732;51.074;3.788;2022-11-12T02:27:21;7.20;99.90
27226;DHT22;14732;51.074;3.788;2022-11-12T02:29:47;7.10;99.90
27226;DHT22;14732;51.074;3.788;2022-11-12T02:32:13;7.30;99.90
27226;DHT22;14732;51.074;3.788;2022-11-12T02:34:39;7.40;99.90
27226;DHT22;14732;51.074;3.788;2022-11-12T02:37:06;7.40;99.90
27226;DHT22;14732;51.074;3.788;2022-11-12T02:39:32;7.40;99.90
27226;DHT22;14732;51.074;3.788;2022-11-12T02:41:58;7.40;99.90
27226;DHT22;14732;51.074;3.788;2022-11-12T02:44:24;7.30;99.90
27226;DHT22;14732;51.074;3.788;2022-11-12T02:46:49;7.30;99.90
27226;DHT22;14732;51.074;3.788;2022-11-12T02:49:15;7.30;99.90
27226;DHT22;14732;51.074;3.788;2022-11-12T02:51:41;7.20;99.90
27226;DHT22;14732;51.074;3.788;2022-11-12T02:54:06;7.10;99.90
27226;DHT22;14732;51.074;3.788;2022-11-12T02:56:33;7.10;99.90
27226;DHT22;14732;51.074;3.788;2022-11-12T02:59:00;7.20;99.90
27226;DHT22;14732;51.074;3.788;2022-11-12T03:01:25;7.20;99.90
27226;DHT22;14732;51.074;3.788;2022-11-12T03:03:51;7.30;99.90
27226;DHT22;14732;51.074;3.788;2022-11-12T03:06:17;7.30;99.90
27226;DHT22;14732;51.074;3.788;2022-11-12T03:08:42;7.40;99.90
27226;DHT22;14732;51.074;3.788;2022-11-12T03:11:10;7.50;99.90
27226;DHT22;14732;51.074;3.788;2022-11-12T03:13:36;7.30;99.90
27226;DHT22;14732;51.074;3.788;2022-11-12T03:16:02;7.30;99.90
27226;DHT22;14732;51.074;3.788;2022-11-12T03:18:28;7.20;99.90
27226;DHT22;14732;51.074;3.788;2022-11-12T03:20:54;7.10;99.90
27226;DHT22;14732;51.074;3.788;2022-11-12T03:23:19;7.20;99.90
27226;DHT22;14732;51.074;3.788;2022-11-12T03:25:45;7.10;99.90
27226;DHT22;14732;51.074;3.788;2022-11-12T03:28:13;7.00;99.90
27226;DHT22;14732;51.074;3.788;2022-11-12T03:30:41;7.00;99.90
27226;DHT22;14732;51.074;3.788;2022-11-12T03:33:09;7.00;99.90
27226;DHT22;14732;51.074;3.788;2022-11-12T03:35:35;6.90;99.90
27226;DHT22;14732;51.074;3.788;2022-11-12T03:38:02;7.00;99.90
27226;DHT22;14732;51.074;3.788;2022-11-12T03:40:28;7.00;99.90
27226;DHT22;14732;51.074;3.788;2022-11-12T03:42:54;7.10;99.90
27226;DHT22;14732;51.074;3.788;2022-11-12T03:45:21;7.10;99.90
27226;DHT22;14732;51.074;3.788;2022-11-12T03:47:53;7.10;99.90
27226;DHT22;14732;51.074;3.788;2022-11-12T03:50:21;7.10;99.90
27226;DHT22;14732;51.074;3.788;2022-11-12T03:52:49;7.10;99.90
27226;DHT22;14732;51.074;3.788;2022-11-12T03:55:17;7.10;99.90
27226;DHT22;14732;51.074;3.788;2022-11-12T03:57:44;7.20;99.90
27226;DHT22;14732;51.074;3.788;2022-11-12T04:00:11;7.10;99.90
27226;DHT22;14732;51.074;3.788;2022-11-12T04:02:37;7.10;99.90
27226;DHT22;14732;51.074;3.788;2022-11-12T04:05:04;7.10;99.90
27226;DHT22;14732;51.074;3.788;2022-11-12T04:08:06;7.00;99.90
27226;DHT22;14732;51.074;3.788;2022-11-12T04:10:50;7.10;99.90
27226;DHT22;14732;51.074;3.788;2022-11-12T04:13:16;7.10;99.90
27226;DHT22;14732;51.074;3.788;2022-11-12T04:16:02;7.10;99.90
27226;DHT22;14732;51.074;3.788;2022-11-12T04:18:48;7.00;99.90
27226;DHT22;14732;51.074;3.788;2022-11-12T04:21:37;7.10;99.90
27226;DHT22;14732;51.074;3.788;2022-11-12T04:24:16;7.10;99.90
27226;DHT22;14732;51.074;3.788;2022-11-12T04:27:00;7.00;99.90
27226;DHT22;14732;51.074;3.788;2022-11-12T04:29:26;6.80;99.90
27226;DHT22;14732;51.074;3.788;2022-11-12T04:32:10;6.70;99.90
27226;DHT22;14732;51.074;3.788;2022-11-12T04:34:36;6.70;99.90
27226;DHT22;14732;51.074;3.788;2022-11-12T04:37:05;6.80;99.90
27226;DHT22;14732;51.074;3.788;2022-11-12T04:39:31;6.80;99.90
27226;DHT22;14732;51.074;3.788;2022-11-12T04:41:57;6.90;99.90
27226;DHT22;14732;51.074;3.788;2022-11-12T04:44:41;6.80;99.90
27226;DHT22;14732;51.074;3.788;2022-11-12T04:47:35;6.80;99.90
27226;DHT22;14732;51.074;3.788;2022-11-12T04:50:03;6.90;99.90
27226;DHT22;14732;51.074;3.788;2022-11-12T04:52:29;6.90;99.90
27226;DHT22;14732;51.074;3.788;2022-11-12T04:54:55;6.80;99.90
27226;DHT22;14732;51.074;3.788;2022-11-12T04:57:21;6.90;99.90
27226;DHT22;14732;51.074;3.788;2022-11-12T04:59:47;6.90;99.90
27226;DHT22;14732;51.074;3.788;2022-11-12T05:02:14;6.90;99.90
27226;DHT22;14732;51.074;3.788;2022-11-12T05:04:40;6.80;99.90
27226;DHT22;14732;51.074;3.788;2022-11-12T05:07:06;6.80;99.90
27226;DHT22;14732;51.074;3.788;2022-11-12T05:09:31;6.80;99.90
27226;DHT22;14732;51.074;3.788;2022-11-12T05:11:57;6.70;99.90
27226;DHT22;14732;51.074;3.788;2022-11-12T05:14:23;6.70;99.90
27226;DHT22;14732;51.074;3.788;2022-11-12T05:16:49;6.80;99.90
27226;DHT22;14732;51.074;3.788;2022-11-12T05:19:15;6.90;99.90
27226;DHT22;14732;51.074;3.788;2022-11-12T05:21:41;6.90;99.90
27226;DHT22;14732;51.074;3.788;2022-11-12T05:24:25;7.10;99.90
27226;DHT22;14732;51.074;3.788;2022-11-12T05:26:55;7.00;99.90
27226;DHT22;14732;51.074;3.788;2022-11-12T05:29:21;6.90;99.90
27226;DHT22;14732;51.074;3.788;2022-11-12T05:31:46;6.80;99.90
27226;DHT22;14732;51.074;3.788;2022-11-12T05:34:12;6.80;99.90
27226;DHT22;14732;51.074;3.788;2022-11-12T05:36:38;6.90;99.90
27226;DHT22;14732;51.074;3.788;2022-11-12T05:39:04;6.90;99.90
27226;DHT22;14732;51.074;3.788;2022-11-12T05:41:30;6.90;99.90
27226;DHT22;14732;51.074;3.788;2022-11-12T05:43:55;6.80;99.90
27226;DHT22;14732;51.074;3.788;2022-11-12T05:46:21;6.80;99.90
27226;DHT22;14732;51.074;3.788;2022-11-12T05:48:47;6.80;99.90
27226;DHT22;14732;51.074;3.788;2022-11-12T05:51:12;6.70;99.90
27226;DHT22;14732;51.074;3.788;2022-11-12T05:53:39;6.70;99.90
27226;DHT22;14732;51.074;3.788;2022-11-12T05:56:06;6.60;99.90
27226;DHT22;14732;51.074;3.788;2022-11-12T05:58:32;6.50;99.90
27226;DHT22;14732;51.074;3.788;2022-11-12T06:00:58;6.40;99.90
27226;DHT22;14732;51.074;3.788;2022-11-12T06:03:25;6.50;99.90
27226;DHT22;14732;51.074;3.788;2022-11-12T06:05:51;6.70;99.90
27226;DHT22;14732;51.074;3.788;2022-11-12T06:08:16;6.70;99.90
27226;DHT22;14732;51.074;3.788;2022-11-12T06:10:46;6.80;99.90
27226;DHT22;14732;51.074;3.788;2022-11-12T06:13:12;6.90;99.90
27226;DHT22;14732;51.074;3.788;2022-11-12T06:15:37;6.90;99.90
27226;DHT22;14732;51.074;3.788;2022-11-12T06:18:03;6.90;99.90
27226;DHT22;14732;51.074;3.788;2022-11-12T06:20:29;7.00;99.90
27226;DHT22;14732;51.074;3.788;2022-11-12T06:22:55;7.00;99.90
27226;DHT22;14732;51.074;3.788;2022-11-12T06:25:21;7.00;99.90
27226;DHT22;14732;51.074;3.788;2022-11-12T06:27:47;6.90;99.90
27226;DHT22;14732;51.074;3.788;2022-11-12T06:30:13;6.90;99.90
27226;DHT22;14732;51.074;3.788;2022-11-12T06:32:39;7.00;99.90
27226;DHT22;14732;51.074;3.788;2022-11-12T06:35:05;7.00;99.90
27226;DHT22;14732;51.074;3.788;2022-11-12T06:37:31;7.00;99.90
27226;DHT22;14732;51.074;3.788;2022-11-12T06:39:57;7.00;99.90
27226;DHT22;14732;51.074;3.788;2022-11-12T06:42:22;7.00;99.90
27226;DHT22;14732;51.074;3.788;2022-11-12T06:44:48;6.90;99.90
27226;DHT22;14732;51.074;3.788;2022-11-12T06:47:14;6.90;99.90
27226;DHT22;14732;51.074;3.788;2022-11-12T06:49:39;6.90;99.90
27226;DHT22;14732;51.074;3.788;2022-11-12T06:52:05;6.90;99.90
27226;DHT22;14732;51.074;3.788;2022-11-12T06:54:30;6.90;99.90
27226;DHT22;14732;51.074;3.788;2022-11-12T06:56:56;6.80;99.90
27226;DHT22;14732;51.074;3.788;2022-11-12T06:59:22;6.90;99.90
27226;DHT22;14732;51.074;3.788;2022-11-12T07:01:47;6.90;99.90
27226;DHT22;14732;51.074;3.788;2022-11-12T07:04:13;7.00;99.90
27226;DHT22;14732;51.074;3.788;2022-11-12T07:06:38;7.00;99.90
27226;DHT22;14732;51.074;3.788;2022-11-12T07:09:04;7.00;99.90
27226;DHT22;14732;51.074;3.788;2022-11-12T07:11:30;7.00;99.90
27226;DHT22;14732;51.074;3.788;2022-11-12T07:13:56;7.00;99.90
27226;DHT22;14732;51.074;3.788;2022-11-12T07:16:21;7.00;99.90
27226;DHT22;14732;51.074;3.788;2022-11-12T07:18:48;7.00;99.90
27226;DHT22;14732;51.074;3.788;2022-11-12T07:21:16;7.00;99.90
27226;DHT22;14732;51.074;3.788;2022-11-12T07:23:42;6.90;99.90
27226;DHT22;14732;51.074;3.788;2022-11-12T07:26:20;7.00;99.90
27226;DHT22;14732;51.074;3.788;2022-11-12T07:28:47;7.10;99.90
27226;DHT22;14732;51.074;3.788;2022-11-12T07:31:16;7.00;99.90
27226;DHT22;14732;51.074;3.788;2022-11-12T07:33:43;6.90;99.90
27226;DHT22;14732;51.074;3.788;2022-11-12T07:36:14;6.80;99.90
27226;DHT22;14732;51.074;3.788;2022-11-12T07:38:41;6.70;99.90
27226;DHT22;14732;51.074;3.788;2022-11-12T07:43:36;6.90;99.90
27226;DHT22;14732;51.074;3.788;2022-11-12T07:46:24;7.70;99.90
27226;DHT22;14732;51.074;3.788;2022-11-12T07:48:50;9.40;99.90
27226;DHT22;14732;51.074;3.788;2022-11-12T07:51:27;11.10;99.90
27226;DHT22;14732;51.074;3.788;2022-11-12T07:53:55;12.80;99.90
27226;DHT22;14732;51.074;3.788;2022-11-12T07:56:22;14.20;99.90
27226;DHT22;14732;51.074;3.788;2022-11-12T07:58:48;15.60;99.90
27226;DHT22;14732;51.074;3.788;2022-11-12T08:01:24;16.80;99.90
27226;DHT22;14732;51.074;3.788;2022-11-12T08:03:52;17.90;99.90
27226;DHT22;14732;51.074;3.788;2022-11-12T08:06:18;18.90;99.90
27226;DHT22;14732;51.074;3.788;2022-11-12T08:08:44;19.50;99.90
27226;DHT22;14732;51.074;3.788;2022-11-12T08:11:09;19.30;99.90
27226;DHT22;14732;51.074;3.788;2022-11-12T08:13:35;18.30;99.90
27226;DHT22;14732;51.074;3.788;2022-11-12T08:16:01;17.30;99.90
27226;DHT22;14732;51.074;3.788;2022-11-12T08:18:27;16.40;99.90
27226;DHT22;14732;51.074;3.788;2022-11-12T08:20:58;15.50;99.90
27226;DHT22;14732;51.074;3.788;2022-11-12T08:23:24;14.80;99.90
27226;DHT22;14732;51.074;3.788;2022-11-12T08:25:50;14.10;99.90
27226;DHT22;14732;51.074;3.788;2022-11-12T08:28:16;13.80;99.90
27226;DHT22;14732;51.074;3.788;2022-11-12T08:30:41;14.10;99.90
27226;DHT22;14732;51.074;3.788;2022-11-12T08:33:07;15.30;99.90
27226;DHT22;14732;51.074;3.788;2022-11-12T08:35:33;16.90;99.90
27226;DHT22;14732;51.074;3.788;2022-11-12T08:38:04;18.60;99.90
27226;DHT22;14732;51.074;3.788;2022-11-12T08:40:31;20.40;99.90
27226;DHT22;14732;51.074;3.788;2022-11-12T08:43:02;21.90;99.90
27226;DHT22;14732;51.074;3.788;2022-11-12T08:45:31;22.80;99.90
27226;DHT22;14732;51.074;3.788;2022-11-12T08:48:15;24.10;99.90
27226;DHT22;14732;51.074;3.788;2022-11-12T08:50:40;25.80;99.90
27226;DHT22;14732;51.074;3.788;2022-11-12T08:53:10;26.80;99.90
27226;DHT22;14732;51.074;3.788;2022-11-12T08:55:36;26.40;99.90
27226;DHT22;14732;51.074;3.788;2022-11-12T08:58:03;28.10;99.00
27226;DHT22;14732;51.074;3.788;2022-11-12T09:00:31;28.00;96.20
27226;DHT22;14732;51.074;3.788;2022-11-12T09:03:01;28.20;95.70
27226;DHT22;14732;51.074;3.788;2022-11-12T09:05:27;29.60;92.30
27226;DHT22;14732;51.074;3.788;2022-11-12T09:08:01;27.00;93.90
27226;DHT22;14732;51.074;3.788;2022-11-12T09:10:27;27.50;93.50
27226;DHT22;14732;51.074;3.788;2022-11-12T09:12:54;28.60;92.60
27226;DHT22;14732;51.074;3.788;2022-11-12T09:15:20;29.40;90.50
27226;DHT22;14732;51.074;3.788;2022-11-12T09:17:46;29.70;90.20
27226;DHT22;14732;51.074;3.788;2022-11-12T09:20:12;29.10;89.30
27226;DHT22;14732;51.074;3.788;2022-11-12T09:22:38;27.40;90.10
27226;DHT22;14732;51.074;3.788;2022-11-12T09:25:04;25.10;92.30
27226;DHT22;14732;51.074;3.788;2022-11-12T09:27:30;23.60;94.70
27226;DHT22;14732;51.074;3.788;2022-11-12T09:29:55;22.40;96.70
27226;DHT22;14732;51.074;3.788;2022-11-12T09:32:21;21.10;99.20
27226;DHT22;14732;51.074;3.788;2022-11-12T09:34:47;19.50;99.90
27226;DHT22;14732;51.074;3.788;2022-11-12T09:37:13;18.40;99.90
27226;DHT22;14732;51.074;3.788;2022-11-12T09:39:38;17.60;99.90
27226;DHT22;14732;51.074;3.788;2022-11-12T09:42:13;16.80;99.90
27226;DHT22;14732;51.074;3.788;2022-11-12T09:44:40;16.20;99.90
27226;DHT22;14732;51.074;3.788;2022-11-12T09:47:37;15.40;99.90
27226;DHT22;14732;51.074;3.788;2022-11-12T09:50:31;15.20;99.90
27226;DHT22;14732;51.074;3.788;2022-11-12T09:53:13;14.80;99.90
27226;DHT22;14732;51.074;3.788;2022-11-12T09:55:48;14.10;99.90
27226;DHT22;14732;51.074;3.788;2022-11-12T09:58:15;13.50;99.90
27226;DHT22;14732;51.074;3.788;2022-11-12T10:00:51;13.40;99.90
27226;DHT22;14732;51.074;3.788;2022-11-12T10:03:34;13.50;99.90
27226;DHT22;14732;51.074;3.788;2022-11-12T10:06:11;13.70;99.90
27226;DHT22;14732;51.074;3.788;2022-11-12T10:08:49;13.70;99.90
27226;DHT22;14732;51.074;3.788;2022-11-12T10:11:41;13.30;99.90
27226;DHT22;14732;51.074;3.788;2022-11-12T10:14:43;13.40;99.90
27226;DHT22;14732;51.074;3.788;2022-11-12T10:17:33;13.60;99.90
27226;DHT22;14732;51.074;3.788;2022-11-12T10:20:31;13.50;99.90
27226;DHT22;14732;51.074;3.788;2022-11-12T10:25:26;13.60;99.90
27226;DHT22;14732;51.074;3.788;2022-11-12T10:27:54;13.80;99.90
27226;DHT22;14732;51.074;3.788;2022-11-12T10:30:22;13.90;99.90
27226;DHT22;14732;51.074;3.788;2022-11-12T10:32:49;13.80;99.90
27226;DHT22;14732;51.074;3.788;2022-11-12T10:35:20;13.70;99.90
27226;DHT22;14732;51.074;3.788;2022-11-12T10:37:48;13.60;99.90
27226;DHT22;14732;51.074;3.788;2022-11-12T10:40:36;13.60;99.90
27226;DHT22;14732;51.074;3.788;2022-11-12T10:43:20;13.70;99.90
27226;DHT22;14732;51.074;3.788;2022-11-12T10:45:47;13.80;99.90
27226;DHT22;14732;51.074;3.788;2022-11-12T10:48:31;13.50;99.90
27226;DHT22;14732;51.074;3.788;2022-11-12T10:50:58;13.60;99.90
27226;DHT22;14732;51.074;3.788;2022-11-12T10:53:36;13.90;99.90
27226;DHT22;14732;51.074;3.788;2022-11-12T10:56:04;13.90;99.90
27226;DHT22;14732;51.074;3.788;2022-11-12T10:58:30;13.80;99.90
27226;DHT22;14732;51.074;3.788;2022-11-12T11:01:02;13.90;99.90
27226;DHT22;14732;51.074;3.788;2022-11-12T11:03:33;13.70;99.90
27226;DHT22;14732;51.074;3.788;2022-11-12T11:06:05;13.40;99.90
27226;DHT22;14732;51.074;3.788;2022-11-12T11:13:42;14.00;99.90
27226;DHT22;14732;51.074;3.788;2022-11-12T11:16:15;13.70;99.90
27226;DHT22;14732;51.074;3.788;2022-11-12T11:18:46;13.40;99.90
27226;DHT22;14732;51.074;3.788;2022-11-12T11:26:53;14.10;99.90
27226;DHT22;14732;51.074;3.788;2022-11-12T11:43:52;13.40;99.90
27226;DHT22;14732;51.074;3.788;2022-11-12T11:46:54;13.40;99.90
27226;DHT22;14732;51.074;3.788;2022-11-12T11:49:44;13.40;99.90
27226;DHT22;14732;51.074;3.788;2022-11-12T11:55:13;14.30;99.90
27226;DHT22;14732;51.074;3.788;2022-11-12T12:00:34;14.50;99.90
27226;DHT22;14732;51.074;3.788;2022-11-12T12:11:37;14.60;99.90
27226;DHT22;14732;51.074;3.788;2022-11-12T12:14:19;14.80;99.90
27226;DHT22;14732;51.074;3.788;2022-11-12T12:25:16;14.70;99.90
27226;DHT22;14732;51.074;3.788;2022-11-12T12:27:53;14.60;99.90
27226;DHT22;14732;51.074;3.788;2022-11-12T12:30:22;14.60;99.90
27226;DHT22;14732;51.074;3.788;2022-11-12T12:32:58;14.40;99.90
27226;DHT22;14732;51.074;3.788;2022-11-12T12:35:33;14.00;99.90
27226;DHT22;14732;51.074;3.788;2022-11-12T12:38:37;13.90;99.90
27226;DHT22;14732;51.074;3.788;2022-11-12T12:44:10;14.50;99.90
27226;DHT22;14732;51.074;3.788;2022-11-12T12:46:45;14.90;99.90
27226;DHT22;14732;51.074;3.788;2022-11-12T12:49:29;15.20;99.90
27226;DHT22;14732;51.074;3.788;2022-11-12T12:51:57;14.90;99.90
27226;DHT22;14732;51.074;3.788;2022-11-12T12:57:39;15.10;99.90
27226;DHT22;14732;51.074;3.788;2022-11-12T13:00:37;15.40;99.90
27226;DHT22;14732;51.074;3.788;2022-11-12T13:03:04;15.40;99.90
27226;DHT22;14732;51.074;3.788;2022-11-12T13:05:33;15.20;99.90
27226;DHT22;14732;51.074;3.788;2022-11-12T13:08:03;15.10;99.90
27226;DHT22;14732;51.074;3.788;2022-11-12T13:18:10;15.50;99.90
27226;DHT22;14732;51.074;3.788;2022-11-12T13:20:40;15.50;99.90
27226;DHT22;14732;51.074;3.788;2022-11-12T13:23:11;15.70;99.90
27226;DHT22;14732;51.074;3.788;2022-11-12T13:34:48;16.50;99.90
27226;DHT22;14732;51.074;3.788;2022-11-12T13:37:20;16.30;99.90
27226;DHT22;14732;51.074;3.788;2022-11-12T13:39:47;16.20;99.90
27226;DHT22;14732;51.074;3.788;2022-11-12T13:42:15;16.20;99.90
27226;DHT22;14732;51.074;3.788;2022-11-12T13:45:01;16.30;99.90
27226;DHT22;14732;51.074;3.788;2022-11-12T13:47:27;16.40;99.90
27226;DHT22;14732;51.074;3.788;2022-11-12T13:49:55;16.40;99.90
27226;DHT22;14732;51.074;3.788;2022-11-12T13:52:24;16.20;99.90
27226;DHT22;14732;51.074;3.788;2022-11-12T13:55:02;16.00;99.90
27226;DHT22;14732;51.074;3.788;2022-11-12T13:57:30;16.00;99.90
27226;DHT22;14732;51.074;3.788;2022-11-12T14:02:36;16.10;99.90
27226;DHT22;14732;51.074;3.788;2022-11-12T14:05:16;16.00;99.90
27226;DHT22;14732;51.074;3.788;2022-11-12T14:16:11;16.20;99.90
27226;DHT22;14732;51.074;3.788;2022-11-12T14:21:39;16.10;99.90
27226;DHT22;14732;51.074;3.788;2022-11-12T14:24:09;15.80;99.90
27226;DHT22;14732;51.074;3.788;2022-11-12T14:26:42;15.70;99.90
27226;DHT22;14732;51.074;3.788;2022-11-12T14:29:16;15.70;99.90
27226;DHT22;14732;51.074;3.788;2022-11-12T14:31:42;15.60;99.90
27226;DHT22;14732;51.074;3.788;2022-11-12T14:34:29;15.60;99.90
27226;DHT22;14732;51.074;3.788;2022-11-12T14:36:55;15.50;99.90
27226;DHT22;14732;51.074;3.788;2022-11-12T14:39:23;15.40;99.90
27226;DHT22;14732;51.074;3.788;2022-11-12T14:41:50;15.70;99.90
27226;DHT22;14732;51.074;3.788;2022-11-12T14:44:22;15.90;99.90
27226;DHT22;14732;51.074;3.788;2022-11-12T14:46:55;16.00;99.90
27226;DHT22;14732;51.074;3.788;2022-11-12T14:49:39;15.80;99.90
27226;DHT22;14732;51.074;3.788;2022-11-12T14:52:11;15.70;99.90
27226;DHT22;14732;51.074;3.788;2022-11-12T14:54:49;15.80;99.90
27226;DHT22;14732;51.074;3.788;2022-11-12T14:57:25;15.50;99.90
27226;DHT22;14732;51.074;3.788;2022-11-12T14:59:51;15.50;99.90
27226;DHT22;14732;51.074;3.788;2022-11-12T15:02:28;15.50;99.90
27226;DHT22;14732;51.074;3.788;2022-11-12T15:05:02;15.30;99.90
27226;DHT22;14732;51.074;3.788;2022-11-12T15:13:24;15.30;99.90
27226;DHT22;14732;51.074;3.788;2022-11-12T15:16:05;15.30;99.90
27226;DHT22;14732;51.074;3.788;2022-11-12T15:18:35;15.30;99.90
27226;DHT22;14732;51.074;3.788;2022-11-12T15:23:45;15.40;99.90
27226;DHT22;14732;51.074;3.788;2022-11-12T15:26:21;15.30;99.90
27226;DHT22;14732;51.074;3.788;2022-11-12T15:29:00;15.00;99.90
27226;DHT22;14732;51.074;3.788;2022-11-12T15:31:26;15.00;99.90
27226;DHT22;14732;51.074;3.788;2022-11-12T15:33:52;14.80;99.90
27226;DHT22;14732;51.074;3.788;2022-11-12T15:36:20;14.70;99.90
27226;DHT22;14732;51.074;3.788;2022-11-12T15:38:51;14.70;99.90
27226;DHT22;14732;51.074;3.788;2022-11-12T15:41:28;14.80;99.90
27226;DHT22;14732;51.074;3.788;2022-11-12T15:43:55;14.70;99.90
27226;DHT22;14732;51.074;3.788;2022-11-12T15:46:21;14.40;99.90
27226;DHT22;14732;51.074;3.788;2022-11-12T15:48:47;14.40;99.90
27226;DHT22;14732;51.074;3.788;2022-11-12T15:51:14;14.40;99.90
27226;DHT22;14732;51.074;3.788;2022-11-12T15:53:40;14.40;99.90
27226;DHT22;14732;51.074;3.788;2022-11-12T15:56:11;14.30;99.90
27226;DHT22;14732;51.074;3.788;2022-11-12T15:58:38;14.30;99.90
27226;DHT22;14732;51.074;3.788;2022-11-12T16:01:05;14.20;99.90
27226;DHT22;14732;51.074;3.788;2022-11-12T16:03:30;14.20;99.90
27226;DHT22;14732;51.074;3.788;2022-11-12T16:05:56;14.20;99.90
27226;DHT22;14732;51.074;3.788;2022-11-12T16:08:22;14.00;99.90
27226;DHT22;14732;51.074;3.788;2022-11-12T16:10:48;13.60;99.90
27226;DHT22;14732;51.074;3.788;2022-11-12T16:13:15;13.50;99.90
27226;DHT22;14732;51.074;3.788;2022-11-12T16:15:42;13.60;99.90
27226;DHT22;14732;51.074;3.788;2022-11-12T16:18:09;13.70;99.90
27226;DHT22;14732;51.074;3.788;2022-11-12T16:20:36;13.70;99.90
27226;DHT22;14732;51.074;3.788;2022-11-12T16:23:02;13.60;99.90
27226;DHT22;14732;51.074;3.788;2022-11-12T16:25:29;13.60;99.90
27226;DHT22;14732;51.074;3.788;2022-11-12T16:27:56;13.50;99.90
27226;DHT22;14732;51.074;3.788;2022-11-12T16:30:25;13.40;99.90
27226;DHT22;14732;51.074;3.788;2022-11-12T16:32:51;13.30;99.90
27226;DHT22;14732;51.074;3.788;2022-11-12T16:35:17;13.30;99.90
27226;DHT22;14732;51.074;3.788;2022-11-12T16:37:43;13.30;99.90
27226;DHT22;14732;51.074;3.788;2022-11-12T16:40:15;13.30;99.90
27226;DHT22;14732;51.074;3.788;2022-11-12T16:42:41;13.30;99.90
27226;DHT22;14732;51.074;3.788;2022-11-12T16:45:14;13.20;99.90
27226;DHT22;14732;51.074;3.788;2022-11-12T16:47:48;13.20;99.90
27226;DHT22;14732;51.074;3.788;2022-11-12T16:50:16;13.20;99.90
27226;DHT22;14732;51.074;3.788;2022-11-12T16:52:42;13.10;99.90
27226;DHT22;14732;51.074;3.788;2022-11-12T16:55:09;13.10;99.90
27226;DHT22;14732;51.074;3.788;2022-11-12T16:57:35;13.00;99.90
27226;DHT22;14732;51.074;3.788;2022-11-12T17:00:01;13.00;99.90
27226;DHT22;14732;51.074;3.788;2022-11-12T17:02:27;13.00;99.90
27226;DHT22;14732;51.074;3.788;2022-11-12T17:04:52;12.90;99.90
27226;DHT22;14732;51.074;3.788;2022-11-12T17:07:18;12.80;99.90
27226;DHT22;14732;51.074;3.788;2022-11-12T17:09:44;12.70;99.90
27226;DHT22;14732;51.074;3.788;2022-11-12T17:12:10;12.60;99.90
27226;DHT22;14732;51.074;3.788;2022-11-12T17:14:36;12.60;99.90
27226;DHT22;14732;51.074;3.788;2022-11-12T17:17:02;12.60;99.90
27226;DHT22;14732;51.074;3.788;2022-11-12T17:19:27;12.60;99.90
27226;DHT22;14732;51.074;3.788;2022-11-12T17:21:53;12.40;99.90
27226;DHT22;14732;51.074;3.788;2022-11-12T17:24:19;12.20;99.90
27226;DHT22;14732;51.074;3.788;2022-11-12T17:26:45;12.10;99.90
27226;DHT22;14732;51.074;3.788;2022-11-12T17:29:11;12.20;99.90
27226;DHT22;14732;51.074;3.788;2022-11-12T17:31:36;12.20;99.90
27226;DHT22;14732;51.074;3.788;2022-11-12T17:34:04;12.20;99.90